createdAt,value
2023-05-14T00:01:08.013Z,78.01898038323155
2023-05-14T00:04:04.661Z,78.955661440858
2023-05-14T00:07:00.164Z,78.97554460785324
2023-05-14T00:09:55.673Z,79.1729200517049
2023-05-14T00:12:51.324Z,79.60610011283609
2023-05-14T00:15:46.897Z,80.14257681753013
2023-05-14T00:18:43.478Z,79.81058013845853
2023-05-14T00:21:38.964Z,80.41861298969245
2023-05-14T00:24:35.528Z,81.32181544499606
2023-05-14T00:27:31.074Z,80.90311892371474
2023-05-14T00:30:26.619Z,81.25035977066379
2023-05-14T00:33:22.190Z,80.83428598816134
2023-05-14T00:36:17.750Z,81.13493551041218
2023-05-14T00:39:13.283Z,81.94062264733763
2023-05-14T00:42:09.909Z,81.43717984780803
2023-05-14T00:45:06.430Z,80.8874150823228
2023-05-14T00:48:02.083Z,80.95410661688973
2023-05-14T00:50:59.562Z,80.71377435106166
2023-05-14T00:53:55.101Z,80.75169368584523
2023-05-14T00:56:50.687Z,80.86848869786884
2023-05-14T00:59:46.262Z,81.68390897074634
2023-05-14T01:02:42.891Z,81.3367500382229
2023-05-14T01:05:43.369Z,81.92776034835023
2023-05-14T01:08:49.856Z,82.11872381119936
2023-05-14T01:11:55.435Z,81.61118560501242
2023-05-14T01:14:56.963Z,81.15219581292733
2023-05-14T01:17:56.582Z,81.97225269553084
2023-05-14T01:20:54.069Z,82.16661068808467
2023-05-14T01:23:50.621Z,82.20248509127954
2023-05-14T01:26:46.184Z,82.11451356822043
2023-05-14T01:29:50.721Z,82.76067025604142
2023-05-14T01:32:51.680Z,83.14117864510644
2023-05-14T01:35:46.868Z,83.07975997379087
2023-05-14T01:38:46.383Z,83.03768761215827
2023-05-14T01:41:42.941Z,82.71991945993567
2023-05-14T01:44:40.574Z,81.71500635359871
2023-05-14T01:47:36.109Z,82.20049280906548
2023-05-14T01:50:31.644Z,82.34343254426821
2023-05-14T01:53:28.176Z,81.80152981322547
2023-05-14T01:56:24.761Z,83.09960455127901
2023-05-14T01:59:20.305Z,82.66521303785731
2023-05-14T02:02:15.860Z,82.39138397712178
2023-05-14T02:05:12.417Z,81.97881456513177
2023-05-14T02:08:08.016Z,81.8191305551233
2023-05-14T02:11:03.552Z,81.48919845207557
2023-05-14T02:13:59.136Z,81.2551539355974
2023-05-14T02:16:54.702Z,80.04195155517581
2023-05-14T02:19:50.233Z,79.43156636162678
2023-05-14T02:22:45.827Z,77.47411169161207
2023-05-14T02:25:42.356Z,75.31474513719651
2023-05-14T02:28:37.940Z,74.41117133006368
2023-05-14T02:31:34.511Z,74.44822996246884
2023-05-14T02:34:30.055Z,74.32736512265765
2023-05-14T02:37:25.581Z,75.1514200580382
2023-05-14T02:40:21.281Z,75.17816568556378
2023-05-14T02:43:16.722Z,74.80087167552607
2023-05-14T02:46:13.329Z,74.9012017158104
2023-05-14T02:49:08.833Z,74.46964236170594
2023-05-14T02:52:05.450Z,75.01217368361917
2023-05-14T02:55:00.964Z,75.9593131164698
2023-05-14T02:57:56.503Z,76.20066477545781
2023-05-14T03:00:52.115Z,76.51830663810846
2023-05-14T03:03:47.647Z,77.15988700090539
2023-05-14T03:06:43.197Z,76.61821159298384
2023-05-14T03:09:39.767Z,78.12927716840524
2023-05-14T03:12:35.336Z,77.68025921350662
2023-05-14T03:15:30.931Z,76.75072138185175
2023-05-14T03:18:28.492Z,77.7689907663353
2023-05-14T03:21:25.025Z,78.01746263782547
2023-05-14T03:24:20.575Z,78.60886548549323
2023-05-14T03:27:16.133Z,78.30821992943122
2023-05-14T03:30:12.708Z,78.60270429290989
2023-05-14T03:33:10.252Z,78.72528912352963
2023-05-14T03:36:05.798Z,78.64841819331883
2023-05-14T03:39:01.360Z,78.79875846625822
2023-05-14T03:41:58.954Z,78.6211349246585
2023-05-14T03:44:54.512Z,77.91455817782432
2023-05-14T03:47:50.135Z,76.88366548025759
2023-05-14T03:50:45.593Z,76.23473112628027
2023-05-14T03:53:41.163Z,78.30856387298671
2023-05-14T03:56:36.745Z,79.50482323005085
2023-05-14T03:59:32.308Z,79.56725577230083
2023-05-14T04:02:27.935Z,78.43023586223185
2023-05-14T04:05:23.411Z,78.2962983174027
2023-05-14T04:08:18.975Z,78.8896377585066
2023-05-14T04:11:14.523Z,79.45884548484763
2023-05-14T04:14:10.081Z,79.85920230011932
2023-05-14T04:17:05.655Z,80.59408430023653
2023-05-14T04:20:01.231Z,80.24283617424231
2023-05-14T04:22:56.782Z,80.40619973296013
2023-05-14T04:25:52.388Z,81.08322760543216
2023-05-14T04:28:47.871Z,81.28670970063457
2023-05-14T04:31:44.567Z,81.89550750768596
2023-05-14T04:34:41.041Z,82.50951762512975
2023-05-14T04:37:36.591Z,82.45138726642892
2023-05-14T04:40:32.148Z,82.474237805465
2023-05-14T04:43:27.703Z,82.0351987116957
2023-05-14T04:46:24.323Z,81.44114088597107
2023-05-14T04:49:20.905Z,81.3599821331509
2023-05-14T04:52:16.404Z,80.76569654592234
2023-05-14T04:55:11.951Z,81.43187174126427
2023-05-14T04:58:07.523Z,81.73192990855335
2023-05-14T05:01:06.157Z,82.6269888915675
2023-05-14T05:04:02.662Z,82.76409896646358
2023-05-14T05:06:58.165Z,82.92671060793194
2023-05-14T05:09:54.746Z,83.02771822775179
2023-05-14T05:12:50.258Z,84.02763415175133
2023-05-14T05:15:45.953Z,83.90148522590688
2023-05-14T05:18:41.501Z,82.63623120354997
2023-05-14T05:21:39.984Z,83.19562205788509
2023-05-14T05:24:35.540Z,82.93061525563049
2023-05-14T05:27:31.099Z,83.05595200927526
2023-05-14T05:30:26.736Z,83.00791054649773
2023-05-14T05:33:22.190Z,82.55147074829863
2023-05-14T05:36:19.774Z,82.54970909546087
2023-05-14T05:39:16.333Z,82.71354522086995
2023-05-14T05:42:12.915Z,81.5317357430015
2023-05-14T05:45:09.454Z,81.2436750083837
2023-05-14T05:48:06.041Z,81.4903987594082
2023-05-14T05:51:04.563Z,81.54589445531472
2023-05-14T05:54:00.193Z,82.58912605626769
2023-05-14T05:56:55.677Z,83.14861515935696
2023-05-14T05:59:51.299Z,82.44927375856709
2023-05-14T06:02:46.918Z,82.3585212293462
2023-05-14T06:05:43.550Z,82.43120142579166
2023-05-14T06:08:38.941Z,82.08498906907128
2023-05-14T06:11:34.507Z,82.50354530009449
2023-05-14T06:14:30.076Z,82.58582713686786
2023-05-14T06:17:25.719Z,83.73655385528768
2023-05-14T06:20:21.292Z,84.05559146942011
2023-05-14T06:23:16.746Z,84.00573357925374
2023-05-14T06:26:12.305Z,83.559968348328
2023-05-14T06:29:07.858Z,83.37439748425237
2023-05-14T06:32:04.465Z,83.31910042656108
2023-05-14T06:34:59.975Z,82.27278171732206
2023-05-14T06:37:55.522Z,83.18866113344885
2023-05-14T06:40:53.117Z,83.16051460279068
2023-05-14T06:43:48.663Z,81.92501565337271
2023-05-14T06:46:44.247Z,81.06032404983937
2023-05-14T06:49:39.749Z,82.91021662859455
2023-05-14T06:52:36.351Z,82.38389172124792
2023-05-14T06:55:32.917Z,82.56549147823709
2023-05-14T06:58:28.487Z,82.29543298059099
2023-05-14T07:01:24.113Z,83.20156531679682
2023-05-14T07:04:19.698Z,83.81384703375285
2023-05-14T07:07:18.158Z,84.53025466774378
2023-05-14T07:10:14.723Z,84.8891802321631
2023-05-14T07:13:10.247Z,85.21555915433983
2023-05-14T07:16:06.833Z,84.51814542359733
2023-05-14T07:19:02.413Z,84.76807973137043
2023-05-14T07:21:57.934Z,84.26116365233219
2023-05-14T07:24:53.502Z,84.00970888119454
2023-05-14T07:27:49.051Z,85.10049819833193
2023-05-14T07:30:44.621Z,85.14896497192098
2023-05-14T07:33:40.200Z,84.83774083982453
2023-05-14T07:36:36.759Z,84.33132453544886
2023-05-14T07:39:32.301Z,84.51531942810631
2023-05-14T07:42:35.749Z,84.3677604112196
2023-05-14T07:45:29.448Z,83.85666633184479
2023-05-14T07:48:25.048Z,84.81215728566718
2023-05-14T07:51:20.580Z,84.23605444904877
2023-05-14T07:57:21.644Z,84.4023010538985
2023-05-14T08:00:19.214Z,84.18480473559809
2023-05-14T08:03:15.023Z,84.39773252267601
2023-05-14T08:06:10.337Z,84.01347862073511
2023-05-14T08:09:06.927Z,83.45967249969783
2023-05-14T08:12:02.434Z,83.6077200614329
2023-05-14T08:15:02.994Z,83.92976410889138
2023-05-14T08:18:03.739Z,83.19448727775996
2023-05-14T08:21:03.324Z,84.05439713565663
2023-05-14T08:23:59.696Z,83.55707599101093
2023-05-14T08:26:56.224Z,83.69880886261095
2023-05-14T08:29:52.756Z,83.77432098070284
2023-05-14T08:32:48.402Z,84.78601960646552
2023-05-14T08:35:43.904Z,84.89127594531472
2023-05-14T08:38:39.482Z,84.43003800189825
2023-05-14T08:41:37.024Z,84.96140561150126
2023-05-14T08:44:39.571Z,84.37258943892765
2023-05-14T08:47:36.206Z,84.83627590971085
2023-05-14T08:50:35.673Z,84.75279624547446
2023-05-14T08:53:31.243Z,84.52635434364967
2023-05-14T08:56:26.756Z,84.6137921784545
2023-05-14T08:59:22.363Z,85.15673254222679
2023-05-14T09:02:20.979Z,85.16432977019544
2023-05-14T09:05:17.500Z,84.75919873922399
2023-05-14T09:08:13.003Z,84.90707347365841
2023-05-14T09:11:08.638Z,85.24513804166709
2023-05-14T09:14:04.104Z,85.26919079283219
2023-05-14T09:16:59.710Z,84.8838364308733
2023-05-14T09:19:56.253Z,85.17977368022686
2023-05-14T09:22:52.820Z,85.82120555962334
2023-05-14T09:25:49.399Z,85.22863970539149
2023-05-14T09:28:48.912Z,85.58338218053032
2023-05-14T09:31:45.515Z,85.34245277201781
2023-05-14T09:34:42.081Z,84.83050679098564
2023-05-14T09:37:41.586Z,84.30125912692722
2023-05-14T09:40:39.147Z,84.07310612658301
2023-05-14T09:43:35.727Z,83.89053127921603
2023-05-14T09:46:31.239Z,83.66318660552133
2023-05-14T09:49:27.846Z,84.18869746431936
2023-05-14T09:52:23.368Z,83.93898210126972
2023-05-14T09:55:19.939Z,83.2396239979175
2023-05-14T09:58:16.506Z,82.1185250395352
2023-05-14T10:01:19.089Z,81.10843927029046
2023-05-14T10:04:14.634Z,81.53123503566306
2023-05-14T10:07:12.180Z,79.7449765494955
2023-05-14T10:10:15.797Z,78.03087528625109
2023-05-14T10:13:14.306Z,75.48320255872557
2023-05-14T10:16:16.827Z,73.98945709188484
2023-05-14T10:19:15.410Z,74.74067462901643
2023-05-14T10:22:14.966Z,73.89228226241246
2023-05-14T10:25:11.500Z,72.2339195755524
2023-05-14T10:28:08.000Z,73.22137374789004
2023-05-14T10:31:03.640Z,73.14909096231762
2023-05-14T10:33:59.929Z,73.55546049675104
2023-05-14T10:36:58.664Z,73.72180365026051
2023-05-14T10:39:59.269Z,74.52382856041879
2023-05-14T10:42:58.823Z,74.98258616312724
2023-05-14T10:45:55.345Z,75.26678585097218
2023-05-14T10:48:50.975Z,75.09929993087492
2023-05-14T10:51:49.552Z,75.57316616986236
2023-05-14T10:54:50.069Z,75.77832595349847
2023-05-14T10:57:46.604Z,75.98195704210877
2023-05-14T11:00:48.162Z,76.49994940473377
2023-05-14T11:03:46.928Z,76.58499192691991
2023-05-14T11:06:44.257Z,77.38160521850632
2023-05-14T11:09:40.837Z,76.60220976720154
2023-05-14T11:12:37.388Z,76.84649150641002
2023-05-14T11:15:35.930Z,75.18322747436154
2023-05-14T11:18:33.521Z,76.6724258417057
2023-05-14T11:21:32.090Z,77.20386031563676
2023-05-14T11:24:28.611Z,77.09355540931983
2023-05-14T11:27:24.154Z,75.19596431781852
2023-05-14T11:30:21.931Z,75.49913890070823
2023-05-14T11:33:19.364Z,75.84350519655553
2023-05-14T11:36:16.843Z,74.74673665326955
2023-05-14T11:39:18.359Z,74.8635251936061
2023-05-14T11:42:17.908Z,74.25011232051158
2023-05-14T11:45:24.465Z,73.8963718620044
2023-05-14T11:48:21.000Z,73.6426317525532
2023-05-14T11:51:17.592Z,73.69059580003399
2023-05-14T11:54:14.127Z,73.99152236349961
2023-05-14T11:57:10.685Z,73.14611567747097
2023-05-14T12:00:09.286Z,72.4533785553993
2023-05-14T12:03:04.862Z,71.97329371396032
2023-05-14T12:06:02.383Z,71.88593533906973
2023-05-14T12:09:00.913Z,71.4757420889721
2023-05-14T12:11:56.457Z,71.76802488251553
2023-05-14T12:14:53.044Z,73.01279698011646
2023-05-14T12:17:50.694Z,73.14438792638535
2023-05-14T12:20:47.161Z,74.2953032431558
2023-05-14T12:23:42.725Z,74.25341950932471
2023-05-14T12:26:44.285Z,74.94586179168411
2023-05-14T12:29:39.854Z,75.00463231403032
2023-05-14T12:32:41.488Z,76.09400930259321
2023-05-14T12:35:37.938Z,75.46985259959798
2023-05-14T12:38:37.506Z,75.16054884904403
2023-05-14T12:41:33.050Z,74.27759820067773
2023-05-14T12:44:29.650Z,74.61310554797663
2023-05-14T12:47:26.249Z,74.4213972933891
2023-05-14T12:50:23.028Z,74.91435226640012
2023-05-14T12:53:20.294Z,74.2952917438312
2023-05-14T12:56:16.847Z,74.84459209219386
2023-05-14T12:59:12.390Z,75.00917324168782
2023-05-14T13:02:10.986Z,74.86080779118932
2023-05-14T13:05:07.508Z,74.6762195123519
2023-05-14T13:08:04.067Z,74.7792322349479
2023-05-14T13:10:59.615Z,75.056968590841
2023-05-14T13:13:55.225Z,74.6279551327287
2023-05-14T13:16:50.791Z,75.41726861569316
2023-05-14T13:19:46.321Z,75.79760500011227
2023-05-14T13:22:42.049Z,76.31744703000928
2023-05-14T13:25:38.419Z,76.32256013497229
2023-05-14T13:28:33.988Z,74.70367458285499
2023-05-14T13:31:36.772Z,74.51170463572583
2023-05-14T13:34:34.113Z,73.8360389684779
2023-05-14T13:37:29.665Z,73.21273470947808
2023-05-14T13:40:26.222Z,73.50506211279297
2023-05-14T13:43:21.740Z,73.58013193081423
2023-05-14T13:46:17.357Z,71.88879289779868
2023-05-14T13:49:13.879Z,71.52200240411958
2023-05-14T13:52:09.440Z,71.94012126788539
2023-05-14T13:55:05.983Z,72.95746397688784
2023-05-14T13:58:02.605Z,72.84844913776365
2023-05-14T14:00:59.134Z,72.42618188625437
2023-05-14T14:03:54.747Z,72.87981354306754
2023-05-14T14:06:50.280Z,72.76351648932246
2023-05-14T14:09:45.826Z,70.83682279514211
2023-05-14T14:12:41.421Z,71.42000083792364
2023-05-14T14:15:37.951Z,71.06321992828785
2023-05-14T14:18:33.531Z,70.78906641500454
2023-05-14T14:21:29.040Z,69.59449182474397
2023-05-14T14:24:24.711Z,70.19580682479273
2023-05-14T14:30:25.724Z,70.28050216721546
2023-05-14T14:33:22.281Z,70.24289413635441
2023-05-14T14:36:17.837Z,69.16006565341957
2023-05-14T14:39:13.437Z,69.10982050775017
2023-05-14T14:42:08.967Z,68.91850522314856
2023-05-14T14:45:06.519Z,69.5396761025603
2023-05-14T14:48:12.113Z,69.9563427629407
2023-05-14T14:51:08.607Z,69.41501464272737
2023-05-14T14:54:06.206Z,68.59361983142198
2023-05-14T14:57:01.738Z,68.55058604214115
2023-05-14T14:59:57.330Z,69.99829467995956
2023-05-14T15:02:52.887Z,70.48991543149654
2023-05-14T15:05:48.413Z,71.53288514504106
2023-05-14T15:08:43.991Z,71.78660732034054
2023-05-14T15:11:40.542Z,70.56723893607335
2023-05-14T15:14:36.067Z,70.72279517572655
2023-05-14T15:17:31.675Z,71.410045899553
2023-05-14T15:20:27.277Z,70.85660277080471
2023-05-14T15:23:25.808Z,71.93871547292377
2023-05-14T15:26:22.297Z,70.4025032612298
2023-05-14T15:29:17.921Z,69.6230840838876
2023-05-14T15:32:14.431Z,70.06894369668105
2023-05-14T15:35:10.009Z,69.77894085944487
2023-05-14T15:38:08.564Z,69.93205141686497
2023-05-14T15:41:09.141Z,70.42608740976898
2023-05-14T15:44:05.720Z,70.920190178092
2023-05-14T15:47:02.205Z,69.683260951419
2023-05-14T15:49:58.800Z,70.35290680372653
2023-05-14T15:52:54.394Z,69.95800659486291
2023-05-14T15:55:49.932Z,70.12866075597574
2023-05-14T15:58:45.451Z,70.20155722865418
2023-05-14T16:01:41.032Z,70.23812610264136
2023-05-14T16:04:36.602Z,70.46923021275096
2023-05-14T16:07:33.182Z,70.56762252914947
2023-05-14T16:10:28.730Z,70.5073316684603
2023-05-14T16:13:24.290Z,70.670629262953
2023-05-14T16:16:22.952Z,69.7919361278468
2023-05-14T16:19:20.889Z,69.37758500141754
2023-05-14T16:22:15.967Z,69.25661559951331
2023-05-14T16:25:11.525Z,69.10729699528487
2023-05-14T16:28:08.077Z,69.35886915265039
2023-05-14T16:31:03.942Z,68.64503559875699
2023-05-14T16:33:59.219Z,68.74017645581047
2023-05-14T16:36:54.768Z,69.07020541229959
2023-05-14T16:39:50.333Z,70.00266256316726
2023-05-14T16:42:48.506Z,70.11037206154127
2023-05-14T16:45:44.510Z,69.18619045938306
2023-05-14T16:48:40.001Z,69.78569062487178
2023-05-14T16:51:37.883Z,70.22275234456997
2023-05-14T16:54:33.094Z,69.88015388836321
2023-05-14T16:57:28.670Z,70.2342522335731
2023-05-14T17:00:24.464Z,70.95770446877633
2023-05-14T17:03:20.776Z,70.59888088276502
2023-05-14T17:06:16.325Z,70.49404843988636
2023-05-14T17:09:11.924Z,70.30838179929745
2023-05-14T17:12:09.465Z,70.34817784069071
2023-05-14T17:15:06.022Z,71.08929579601623
2023-05-14T17:18:03.611Z,71.1878714089408
2023-05-14T17:21:00.157Z,71.04364264194128
2023-05-14T17:23:55.728Z,70.79181447992323
2023-05-14T17:26:51.273Z,70.88326157728635
2023-05-14T17:29:48.836Z,71.22870542462704
2023-05-14T17:32:44.537Z,70.62491703165182
2023-05-14T17:35:43.948Z,70.80709557374054
2023-05-14T17:38:40.501Z,71.09615212458226
2023-05-14T17:41:36.057Z,71.56256798819219
2023-05-14T17:44:31.585Z,71.23317747721082
2023-05-14T17:47:27.183Z,71.37021901427109
2023-05-14T17:50:22.741Z,71.535254467511
2023-05-14T17:53:19.329Z,71.51577372566884
2023-05-14T17:56:16.916Z,71.49476996407961
2023-05-14T17:59:13.470Z,71.32271336412617
2023-05-14T18:02:08.957Z,71.4527713027172
2023-05-14T18:05:05.540Z,71.72583198960827
2023-05-14T18:08:01.125Z,72.06204611625681
2023-05-14T18:10:58.688Z,72.42553652140279
2023-05-14T18:13:54.276Z,71.86549393569352
2023-05-14T18:16:49.822Z,71.9441672188552
2023-05-14T18:19:45.329Z,72.12001081902505
2023-05-14T18:22:40.911Z,71.78394842857394
2023-05-14T18:25:39.463Z,71.95339898171926
2023-05-14T18:28:38.077Z,71.40315276824055
2023-05-14T19:26:49.326Z,69.34832705406632
2023-05-14T19:29:49.838Z,69.64985401432135
2023-05-14T19:35:52.930Z,69.44688063227103
2023-05-14T19:38:48.482Z,69.78984123144554
2023-05-14T19:41:53.060Z,70.03498686614826
2023-05-14T19:44:48.602Z,69.29404763151095
2023-05-14T19:47:44.185Z,69.55745009441243
2023-05-14T19:50:41.707Z,69.3102961815781
2023-05-14T19:53:37.275Z,69.43261124883092
2023-05-14T19:56:34.803Z,69.79373961495412
2023-05-14T19:59:31.434Z,70.1744560855841
2023-05-14T20:02:29.010Z,70.28770116303984
2023-05-14T20:05:28.535Z,70.4933589647778
2023-05-14T20:08:26.312Z,70.54459642145478
2023-05-14T20:11:22.631Z,70.95912486855315
2023-05-14T20:14:18.141Z,70.88954551281645
2023-05-14T20:17:13.882Z,70.74544280258564
2023-05-14T20:20:10.310Z,70.9541586453606
2023-05-14T20:23:05.880Z,71.0048279910162
2023-05-14T20:26:08.372Z,70.73584464622581
2023-05-14T20:29:03.988Z,70.42000772996451
2023-05-14T20:31:59.558Z,70.38678045741456
2023-05-14T20:34:55.128Z,70.65008712438745
2023-05-14T20:37:51.643Z,70.75731055436417
2023-05-14T20:40:48.206Z,70.77410361424268
2023-05-14T20:43:43.722Z,71.71151549948445
2023-05-14T20:46:40.362Z,71.85665401848892
2023-05-14T20:49:35.893Z,72.12772452020545
2023-05-14T20:55:40.985Z,71.93681915480627
2023-05-14T20:58:36.492Z,72.95140160756108
2023-05-14T21:01:32.107Z,73.12682798991032
2023-05-14T21:04:27.730Z,73.72524870512483
2023-05-14T21:07:23.222Z,74.43756677897018
2023-05-14T21:10:24.048Z,74.93704866079653
2023-05-14T21:13:20.334Z,75.03011270985053
2023-05-14T21:16:15.922Z,75.44091754518179
2023-05-14T21:19:13.237Z,74.98252630185111
2023-05-14T21:22:08.980Z,75.80580054121494
2023-05-14T21:25:05.594Z,76.01345608636552
2023-05-14T21:28:01.129Z,76.90743332346375
2023-05-14T21:30:56.692Z,77.18165002260427
2023-05-14T21:33:52.246Z,77.07705697823694
2023-05-14T21:36:47.854Z,77.3777560436091
2023-05-14T21:39:43.415Z,77.11298058495576
2023-05-14T21:42:40.919Z,76.64935119272106
2023-05-14T21:45:37.497Z,76.84093979357529
2023-05-14T21:48:34.134Z,76.64430414547253
2023-05-14T21:51:30.637Z,77.28410335602284
2023-05-14T21:54:27.152Z,77.43820441863959
2023-05-14T21:57:22.716Z,77.90978050455905
2023-05-14T22:00:23.441Z,77.56234002949013
2023-05-14T22:03:19.931Z,77.06512654007369
2023-05-14T22:06:16.396Z,76.98334405921202
2023-05-14T22:09:12.978Z,76.90899538131013
2023-05-14T22:12:08.534Z,77.12298721329338
2023-05-14T22:15:05.110Z,76.76529379804943
2023-05-14T22:18:02.678Z,76.19017824082832
2023-05-14T22:20:58.188Z,75.85517042769489
2023-05-14T22:23:53.732Z,74.88585455103696
2023-05-14T22:26:50.304Z,75.10361093176786
2023-05-14T22:29:45.881Z,74.78364023040524
2023-05-14T22:32:41.475Z,75.35319984047189
2023-05-14T22:35:37.013Z,75.08406485384845
2023-05-14T22:38:32.574Z,73.75063619657327
2023-05-14T22:41:28.134Z,72.96026141892291
2023-05-14T22:44:23.702Z,72.95746201683458
2023-05-14T22:47:20.287Z,73.45480440372522
2023-05-14T22:50:16.810Z,74.07665815433577
2023-05-14T22:53:12.340Z,74.52846563576699
2023-05-14T22:56:07.963Z,74.9141326353828
2023-05-14T22:59:03.487Z,74.96851438771989
2023-05-14T23:01:59.079Z,75.14545020244006
2023-05-14T23:04:54.687Z,75.45757821184068
2023-05-14T23:07:52.173Z,75.48266978031216
2023-05-14T23:10:47.746Z,75.8222406914554
2023-05-14T23:13:43.247Z,76.00902177445523
2023-05-14T23:16:39.858Z,75.68348882929101
2023-05-14T23:19:36.459Z,75.70936007773548
2023-05-14T23:22:31.986Z,75.60598799013286
2023-05-14T23:25:27.547Z,75.89777149032092
2023-05-14T23:28:24.077Z,75.76455968977105
2023-05-14T23:31:20.646Z,76.44962587546792
2023-05-14T23:34:18.228Z,76.79608262406164
2023-05-14T23:37:13.774Z,76.56461739189582
2023-05-14T23:40:10.327Z,77.04014644835377
2023-05-14T23:43:06.908Z,77.05920404787172
2023-05-14T23:46:02.546Z,76.92907531899783
2023-05-14T23:48:58.986Z,76.7333985741615
2023-05-14T23:51:56.595Z,76.7428739553612
2023-05-14T23:54:53.117Z,76.59767843866705
2023-05-14T23:57:48.667Z,76.48713353533583
